createdAt,value
2022-11-01T00:02:16.525Z,1.73
2022-11-01T00:04:49.421Z,1.80
2022-11-01T00:07:20.278Z,1.70
2022-11-01T00:09:51.173Z,1.80
2022-11-01T00:12:22.176Z,2.00
2022-11-01T00:14:53.235Z,1.77
2022-11-01T00:17:25.257Z,1.80
2022-11-01T00:19:58.809Z,1.60
2022-11-01T00:22:29.786Z,1.80
2022-11-01T00:25:00.656Z,1.90
2022-11-01T00:27:31.474Z,2.03
2022-11-01T00:30:02.308Z,2.20
2022-11-01T00:32:32.961Z,1.90
2022-11-01T00:35:07.161Z,1.60
2022-11-01T00:37:38.721Z,1.47
2022-11-01T00:40:10.403Z,2.00
2022-11-01T00:42:41.328Z,1.53
2022-11-01T00:45:12.773Z,1.70
2022-11-01T00:47:44.122Z,1.80
2022-11-01T00:50:17.958Z,1.50
2022-11-01T00:52:49.523Z,2.13
2022-11-01T00:55:20.845Z,1.47
2022-11-01T00:57:51.776Z,1.87
2022-11-01T01:00:22.807Z,2.00
2022-11-01T01:02:54.211Z,1.30
2022-11-01T01:05:27.313Z,1.50
2022-11-01T01:07:58.529Z,1.83
2022-11-01T01:10:29.579Z,1.50
2022-11-01T01:13:00.743Z,1.60
2022-11-01T01:15:32.561Z,1.53
2022-11-01T01:18:03.650Z,1.40
2022-11-01T01:20:38.350Z,1.30
2022-11-01T01:23:09.332Z,1.43
2022-11-01T01:25:43.045Z,1.33
2022-11-01T01:28:13.941Z,1.40
2022-11-01T01:30:45.644Z,1.53
2022-11-01T01:33:18.864Z,1.30
2022-11-01T01:35:52.478Z,1.40
2022-11-01T01:38:24.679Z,1.47
2022-11-01T01:40:55.418Z,1.37
2022-11-01T01:43:42.987Z,1.53
2022-11-01T01:46:13.960Z,1.70
2022-11-01T01:48:47.160Z,1.50
2022-11-01T01:51:24.085Z,1.27
2022-11-01T01:53:59.081Z,1.37
2022-11-01T01:56:34.735Z,1.43
2022-11-01T01:59:08.990Z,1.50
2022-11-01T02:01:43.004Z,1.20
2022-11-01T02:04:20.907Z,1.53
2022-11-01T02:06:53.751Z,1.40
2022-11-01T02:09:29.400Z,1.40
2022-11-01T02:12:03.482Z,1.50
2022-11-01T02:14:34.749Z,1.47
2022-11-01T02:17:11.064Z,1.30
2022-11-01T02:20:12.854Z,1.10
2022-11-01T02:23:06.621Z,0.73
2022-11-01T02:26:04.767Z,0.90
2022-11-01T02:28:52.805Z,0.80
2022-11-01T02:31:43.269Z,1.20
2022-11-01T02:34:22.625Z,1.23
2022-11-01T02:37:01.116Z,1.30
2022-11-01T02:39:35.465Z,1.30
2022-11-01T02:42:10.946Z,0.80
2022-11-01T02:44:45.807Z,0.80
2022-11-01T02:47:16.890Z,1.40
2022-11-01T02:49:51.286Z,1.00
2022-11-01T02:52:25.612Z,1.40
2022-11-01T02:54:59.904Z,1.20
2022-11-01T02:57:36.117Z,1.37
2022-11-01T03:00:24.067Z,0.80
2022-11-01T03:02:59.275Z,1.07
2022-11-01T03:05:44.575Z,0.83
2022-11-01T03:08:20.978Z,1.00
2022-11-01T03:10:58.542Z,0.90
2022-11-01T03:13:39.564Z,1.10
2022-11-01T03:16:20.809Z,1.17
2022-11-01T03:19:03.366Z,0.97
2022-11-01T03:21:41.295Z,1.20
2022-11-01T03:24:21.985Z,0.90
2022-11-01T03:26:57.775Z,1.17
2022-11-01T03:29:32.246Z,1.20
2022-11-01T03:32:05.772Z,1.40
2022-11-01T03:34:41.657Z,1.37
2022-11-01T03:37:16.120Z,1.13
2022-11-01T03:39:50.243Z,1.20
2022-11-01T03:42:24.187Z,1.30
2022-11-01T03:45:01.195Z,1.10
2022-11-01T03:47:32.961Z,1.50
2022-11-01T03:50:18.604Z,1.83
2022-11-01T03:52:52.029Z,1.70
2022-11-01T03:55:24.034Z,1.80
2022-11-01T03:57:56.282Z,1.80
2022-11-01T04:00:30.811Z,1.47
2022-11-01T04:03:03.845Z,1.30
2022-11-01T04:05:35.921Z,1.30
2022-11-01T04:08:10.120Z,1.30
2022-11-01T04:10:41.028Z,1.20
2022-11-01T04:13:12.671Z,1.30
2022-11-01T04:16:00.047Z,0.83
2022-11-01T04:18:47.933Z,1.00
2022-11-01T04:21:20.091Z,0.90
2022-11-01T04:23:53.665Z,1.40
2022-11-01T04:26:25.607Z,0.87
2022-11-01T04:28:59.373Z,1.00
2022-11-01T04:31:33.747Z,1.20
2022-11-01T04:34:05.987Z,1.47
2022-11-01T04:36:36.872Z,1.30
2022-11-01T04:39:10.027Z,1.37
2022-11-01T04:41:40.906Z,1.60
2022-11-01T04:44:12.008Z,1.30
2022-11-01T04:46:43.017Z,0.90
2022-11-01T04:49:14.140Z,0.80
2022-11-01T04:51:45.966Z,0.90
2022-11-01T04:54:19.304Z,1.10
2022-11-01T04:56:50.338Z,0.90
2022-11-01T04:59:21.552Z,0.70
2022-11-01T05:01:52.612Z,1.40
2022-11-01T05:04:23.592Z,1.40
2022-11-01T05:06:54.456Z,1.20
2022-11-01T05:09:31.275Z,0.97
2022-11-01T05:12:02.011Z,1.00
2022-11-01T05:14:32.886Z,0.90
2022-11-01T05:17:04.174Z,0.80
2022-11-01T05:19:35.032Z,0.97
2022-11-01T05:22:07.147Z,1.20
2022-11-01T05:24:39.856Z,1.00
2022-11-01T05:27:10.802Z,1.00
2022-11-01T05:29:41.725Z,1.10
2022-11-01T05:32:12.731Z,1.00
2022-11-01T05:34:43.839Z,1.00
2022-11-01T05:37:14.781Z,1.13
2022-11-01T05:39:48.424Z,0.93
2022-11-01T05:42:19.044Z,0.83
2022-11-01T05:44:50.832Z,0.80
2022-11-01T05:47:22.175Z,1.00
2022-11-01T05:49:53.126Z,0.87
2022-11-01T05:52:24.071Z,0.90
2022-11-01T05:54:57.092Z,0.83
2022-11-01T05:57:33.161Z,1.00
2022-11-01T06:00:05.466Z,0.90
2022-11-01T06:02:36.831Z,0.97
2022-11-01T06:05:08.374Z,1.03
2022-11-01T06:07:39.944Z,0.87
2022-11-01T06:10:14.331Z,1.00
2022-11-01T06:12:45.376Z,1.20
2022-11-01T06:15:17.046Z,1.23
2022-11-01T06:17:47.998Z,0.70
2022-11-01T06:20:19.052Z,0.97
2022-11-01T06:22:49.883Z,0.93
2022-11-01T06:25:22.995Z,1.07
2022-11-01T06:27:53.978Z,1.00
2022-11-01T06:30:26.802Z,0.83
2022-11-01T06:33:04.131Z,1.10
2022-11-01T06:35:35.838Z,0.90
2022-11-01T06:38:08.192Z,1.10
2022-11-01T06:40:41.180Z,1.13
2022-11-01T06:43:12.899Z,1.10
2022-11-01T06:45:44.611Z,1.10
2022-11-01T06:48:15.305Z,1.37
2022-11-01T06:50:46.177Z,1.00
2022-11-01T06:53:18.362Z,0.83
2022-11-01T06:55:51.199Z,1.03
2022-11-01T06:58:22.287Z,1.27
2022-11-01T07:00:56.288Z,1.03
2022-11-01T07:03:27.670Z,1.17
2022-11-01T07:05:59.091Z,1.17
2022-11-01T07:08:30.706Z,1.13
2022-11-01T07:11:03.655Z,0.97
2022-11-01T07:13:36.044Z,1.10
2022-11-01T07:16:09.249Z,1.07
2022-11-01T07:18:45.975Z,1.20
2022-11-01T07:21:17.805Z,1.07
2022-11-01T07:23:48.637Z,1.20
2022-11-01T07:26:21.538Z,1.20
2022-11-01T07:28:53.025Z,1.20
2022-11-01T07:31:23.894Z,1.00
2022-11-01T07:34:01.716Z,1.27
2022-11-01T07:36:35.829Z,1.30
2022-11-01T07:39:08.053Z,1.43
2022-11-01T07:41:44.454Z,1.00
2022-11-01T07:44:20.449Z,1.10
2022-11-01T07:46:51.890Z,0.80
2022-11-01T07:49:24.164Z,1.00
2022-11-01T07:51:58.965Z,1.10
2022-11-01T07:54:36.373Z,1.20
2022-11-01T07:57:08.965Z,1.30
2022-11-01T07:59:39.835Z,1.10
2022-11-01T08:02:11.654Z,1.00
2022-11-01T08:04:48.169Z,1.20
2022-11-01T08:07:20.798Z,1.00
2022-11-01T08:09:52.168Z,1.27
2022-11-01T08:12:25.872Z,1.37
2022-11-01T08:14:56.874Z,1.10
2022-11-01T08:17:28.272Z,1.10
2022-11-01T08:19:59.392Z,0.90
2022-11-01T08:22:31.864Z,1.07
2022-11-01T08:25:03.046Z,1.03
2022-11-01T08:27:35.990Z,0.90
2022-11-01T08:30:07.627Z,1.73
2022-11-01T08:32:39.055Z,1.30
2022-11-01T08:35:12.883Z,1.20
2022-11-01T08:37:52.553Z,1.10
2022-11-01T08:40:25.011Z,1.33
2022-11-01T08:42:59.820Z,1.00
2022-11-01T08:45:31.371Z,0.83
2022-11-01T08:48:04.360Z,1.00
2022-11-01T08:50:36.499Z,1.00
2022-11-01T08:53:11.756Z,1.10
2022-11-01T08:55:42.970Z,1.00
2022-11-01T08:58:15.971Z,1.10
2022-11-01T09:00:48.159Z,0.93
2022-11-01T09:03:19.166Z,1.20
2022-11-01T09:05:50.922Z,1.23
2022-11-01T09:08:21.660Z,0.90
2022-11-01T09:10:53.112Z,1.13
2022-11-01T09:13:26.089Z,1.00
2022-11-01T09:16:01.387Z,1.13
2022-11-01T09:18:34.041Z,1.20
2022-11-01T09:21:05.370Z,0.77
2022-11-01T09:23:36.878Z,0.80
2022-11-01T09:26:09.477Z,1.10
2022-11-01T09:28:42.924Z,0.93
2022-11-01T09:31:20.511Z,1.03
2022-11-01T09:33:52.999Z,0.90
2022-11-01T09:36:24.230Z,0.80
2022-11-01T09:38:57.791Z,0.70
2022-11-01T09:41:36.571Z,0.70
2022-11-01T09:44:11.224Z,1.03
2022-11-01T09:46:49.474Z,0.93
2022-11-01T09:49:26.087Z,0.77
2022-11-01T09:51:57.811Z,0.83
2022-11-01T09:54:29.569Z,0.87
2022-11-01T09:57:10.980Z,0.73
2022-11-01T09:59:48.999Z,0.90
2022-11-01T10:02:57.211Z,0.97
2022-11-01T10:05:51.746Z,1.13
2022-11-01T10:08:40.984Z,0.80
2022-11-01T10:11:30.275Z,0.80
2022-11-01T10:14:07.436Z,0.80
2022-11-01T10:16:42.846Z,1.00
2022-11-01T10:19:18.352Z,0.77
2022-11-01T10:21:52.612Z,0.90
2022-11-01T10:24:30.269Z,0.90
2022-11-01T10:27:08.257Z,0.73
2022-11-01T10:29:47.829Z,0.70
2022-11-01T10:32:31.355Z,0.70
2022-11-01T10:35:06.852Z,0.60
2022-11-01T10:37:57.316Z,0.83
2022-11-01T10:40:41.245Z,0.70
2022-11-01T10:43:18.347Z,0.80
2022-11-01T10:45:51.840Z,0.87
2022-11-01T10:48:33.232Z,1.13
2022-11-01T10:51:07.327Z,0.60
2022-11-01T10:53:45.226Z,0.63
2022-11-01T10:56:24.194Z,0.80
2022-11-01T10:59:02.046Z,0.70
2022-11-01T11:01:40.125Z,0.63
2022-11-01T11:04:17.704Z,0.83
2022-11-01T11:06:48.877Z,0.70
2022-11-01T11:09:28.049Z,1.03
2022-11-01T11:12:03.268Z,0.67
2022-11-01T11:14:37.441Z,0.77
2022-11-01T11:17:17.640Z,0.80
2022-11-01T11:19:51.132Z,1.00
2022-11-01T11:22:27.867Z,1.00
2022-11-01T11:25:01.811Z,0.70
2022-11-01T11:27:35.238Z,0.87
2022-11-01T11:30:14.308Z,0.67
2022-11-01T11:32:51.315Z,0.90
2022-11-01T11:35:28.509Z,0.67
2022-11-01T11:38:02.199Z,0.80
2022-11-01T11:40:47.536Z,0.90
2022-11-01T11:43:27.734Z,1.20
2022-11-01T11:46:10.303Z,0.60
2022-11-01T11:48:53.447Z,0.87
2022-11-01T11:51:33.939Z,0.70
2022-11-01T11:54:27.174Z,0.80
2022-11-01T11:57:13.956Z,0.67
2022-11-01T12:02:36.036Z,0.70
2022-11-01T12:05:10.410Z,0.70
2022-11-01T12:07:50.637Z,0.70
2022-11-01T12:10:35.086Z,1.10
2022-11-01T12:13:24.906Z,0.90
2022-11-01T12:16:11.696Z,0.60
2022-11-01T12:18:51.379Z,0.60
2022-11-01T12:21:26.567Z,0.60
2022-11-01T12:24:07.183Z,0.70
2022-11-01T12:26:40.719Z,0.97
2022-11-01T12:29:21.222Z,0.80
2022-11-01T12:31:54.464Z,1.07
2022-11-01T12:34:28.629Z,0.90
2022-11-01T12:37:03.415Z,0.80
2022-11-01T12:39:50.483Z,0.67
2022-11-01T12:42:27.370Z,0.73
2022-11-01T12:45:01.300Z,0.83
2022-11-01T12:47:40.495Z,0.50
2022-11-01T12:50:22.104Z,0.83
2022-11-01T12:52:59.634Z,0.73
2022-11-01T12:55:40.819Z,0.60
2022-11-01T12:58:16.066Z,0.60
2022-11-01T13:01:13.300Z,1.00
2022-11-01T13:03:54.186Z,0.90
2022-11-01T13:06:54.547Z,0.80
2022-11-01T13:09:34.782Z,0.70
2022-11-01T13:12:12.126Z,0.80
2022-11-01T13:14:55.084Z,0.80
2022-11-01T13:17:31.658Z,0.60
2022-11-01T13:20:15.502Z,1.00
2022-11-01T13:22:54.572Z,1.23
2022-11-01T13:25:34.169Z,1.20
2022-11-01T13:28:17.320Z,1.00
2022-11-01T13:30:55.325Z,1.13
2022-11-01T13:33:31.360Z,0.60
2022-11-01T13:36:08.572Z,1.10
2022-11-01T13:38:46.764Z,1.20
2022-11-01T13:41:25.730Z,0.90
2022-11-01T13:44:01.535Z,0.90
2022-11-01T13:46:48.571Z,0.70
2022-11-01T13:49:58.548Z,0.93
2022-11-01T13:52:32.649Z,0.90
2022-11-01T13:55:18.878Z,1.00
2022-11-01T13:57:49.965Z,1.00
2022-11-01T14:00:44.469Z,0.90
2022-11-01T14:03:26.940Z,1.03
2022-11-01T14:06:32.846Z,1.20
2022-11-01T14:09:30.959Z,1.20
2022-11-01T14:12:13.361Z,1.27
2022-11-01T14:14:56.507Z,1.50
2022-11-01T14:18:09.928Z,1.10
2022-11-01T14:20:45.164Z,1.33
2022-11-01T14:23:55.334Z,1.40
2022-11-01T14:26:51.502Z,1.40
2022-11-01T14:29:22.945Z,1.30
2022-11-01T14:31:57.291Z,1.37
2022-11-01T14:34:36.735Z,1.20
2022-11-01T14:37:18.285Z,1.20
2022-11-01T14:40:03.033Z,0.97
2022-11-01T14:42:43.079Z,1.20
2022-11-01T14:45:30.517Z,1.43
2022-11-01T14:48:04.541Z,1.57
2022-11-01T14:50:47.352Z,1.33
2022-11-01T14:53:26.574Z,1.30
2022-11-01T14:56:10.935Z,1.20
2022-11-01T14:58:42.099Z,1.40
2022-11-01T15:01:21.604Z,1.27
2022-11-01T15:03:59.808Z,1.20
2022-11-01T15:06:33.540Z,1.43
2022-11-01T15:09:05.512Z,1.20
2022-11-01T15:11:38.056Z,1.20
2022-11-01T15:14:10.972Z,1.30
2022-11-01T15:16:46.172Z,1.23
2022-11-01T15:19:21.556Z,1.13
2022-11-01T15:21:55.179Z,1.50
2022-11-01T15:24:29.300Z,0.90
2022-11-01T15:27:06.642Z,1.20
2022-11-01T15:29:38.985Z,1.10
2022-11-01T15:32:09.923Z,1.00
2022-11-01T15:34:41.061Z,1.30
2022-11-01T15:37:23.958Z,1.03
2022-11-01T15:39:55.105Z,1.00
2022-11-01T15:42:35.034Z,1.37
2022-11-01T15:45:27.271Z,1.00
2022-11-01T15:47:58.926Z,1.40
2022-11-01T15:50:34.037Z,1.30
2022-11-01T15:53:11.750Z,2.60
2022-11-01T15:55:48.819Z,3.60
2022-11-01T15:58:22.547Z,2.47
2022-11-01T16:00:56.558Z,2.33
2022-11-01T16:03:32.880Z,2.87
2022-11-01T16:06:07.972Z,1.90
2022-11-01T16:08:48.423Z,1.70
2022-11-01T16:11:21.821Z,2.10
2022-11-01T16:13:56.107Z,1.80
2022-11-01T16:16:27.466Z,1.30
2022-11-01T16:18:58.387Z,1.73
2022-11-01T16:21:33.236Z,1.80
2022-11-01T16:24:16.402Z,2.07
2022-11-01T16:26:59.961Z,1.63
2022-11-01T16:29:45.177Z,1.50
2022-11-01T16:32:22.114Z,1.77
2022-11-01T16:34:53.337Z,1.53
2022-11-01T16:37:26.213Z,1.40
2022-11-01T16:40:00.058Z,1.80
2022-11-01T16:42:31.366Z,1.60
2022-11-01T16:45:02.342Z,1.47
2022-11-01T16:47:33.761Z,1.33
2022-11-01T16:50:04.703Z,1.40
2022-11-01T16:52:36.226Z,1.80
2022-11-01T16:55:09.475Z,1.20
2022-11-01T16:57:42.227Z,0.97
2022-11-01T17:00:16.770Z,1.27
2022-11-01T17:02:47.661Z,1.03
2022-11-01T17:05:24.330Z,1.00
2022-11-01T17:07:56.283Z,1.57
2022-11-01T17:10:31.984Z,1.27
2022-11-01T17:13:05.527Z,1.57
2022-11-01T17:15:38.593Z,1.30
2022-11-01T17:18:13.440Z,1.30
2022-11-01T17:20:44.838Z,1.47
2022-11-01T17:23:20.823Z,1.40
2022-11-01T17:25:57.417Z,1.40
2022-11-01T17:28:29.237Z,1.10
2022-11-01T17:31:00.954Z,1.60
2022-11-01T17:33:32.586Z,1.70
2022-11-01T17:36:06.216Z,1.40
2022-11-01T17:38:38.054Z,1.40
2022-11-01T17:41:14.914Z,1.40
2022-11-01T17:43:45.790Z,1.90
2022-11-01T17:46:19.977Z,1.80
2022-11-01T17:48:50.843Z,1.87
2022-11-01T17:51:24.094Z,2.10
2022-11-01T17:53:58.445Z,2.00
2022-11-01T17:56:31.929Z,1.93
2022-11-01T17:59:03.576Z,1.70
2022-11-01T18:01:34.913Z,1.80
2022-11-01T18:04:07.332Z,1.73
2022-11-01T18:06:39.852Z,1.40
2022-11-01T18:09:19.480Z,1.97
2022-11-01T18:11:57.246Z,1.50
2022-11-01T18:14:42.668Z,1.40
2022-11-01T18:17:37.158Z,1.50
2022-11-01T18:20:17.743Z,1.90
2022-11-01T18:22:55.083Z,1.70
2022-11-01T18:25:33.287Z,1.30
2022-11-01T18:28:15.874Z,1.87
2022-11-01T18:30:51.209Z,1.50
2022-11-01T18:33:26.907Z,1.70
2022-11-01T18:36:04.439Z,1.37
2022-11-01T18:38:42.017Z,1.70
2022-11-01T18:41:14.894Z,1.63
2022-11-01T18:43:48.249Z,1.43
2022-11-01T18:46:26.383Z,1.50
2022-11-01T18:49:00.844Z,1.60
2022-11-01T18:51:33.742Z,1.77
2022-11-01T18:54:21.781Z,1.63
2022-11-01T18:56:54.822Z,1.90
2022-11-01T18:59:41.655Z,1.90
2022-11-01T19:02:18.240Z,1.67
2022-11-01T19:04:52.207Z,2.00
2022-11-01T19:07:24.638Z,2.00
2022-11-01T19:09:58.148Z,1.40
2022-11-01T19:12:32.297Z,1.40
2022-11-01T19:15:23.965Z,1.30
2022-11-01T19:18:03.108Z,1.33
2022-11-01T19:20:37.951Z,1.00
2022-11-01T19:23:18.107Z,1.13
2022-11-01T19:25:49.463Z,1.13
2022-11-01T19:28:29.439Z,1.00
2022-11-01T19:31:09.910Z,1.40
2022-11-01T19:33:42.846Z,1.20
2022-11-01T19:36:17.333Z,1.47
2022-11-01T19:38:49.124Z,1.70
2022-11-01T19:41:24.702Z,1.00
2022-11-01T19:43:56.604Z,1.90
2022-11-01T19:46:31.017Z,1.80
2022-11-01T19:49:02.070Z,1.27
2022-11-01T19:51:33.325Z,1.30
2022-11-01T19:54:04.214Z,1.03
2022-11-01T19:56:35.493Z,1.30
2022-11-01T19:59:13.669Z,1.20
2022-11-01T20:01:48.247Z,1.30
2022-11-01T20:04:28.513Z,1.23
2022-11-01T20:07:02.801Z,1.00
2022-11-01T20:09:36.890Z,1.10
2022-11-01T20:12:09.137Z,1.10
2022-11-01T20:14:40.026Z,0.77
2022-11-01T20:17:12.610Z,0.90
2022-11-01T20:19:43.542Z,1.27
2022-11-01T20:22:14.401Z,1.07
2022-11-01T20:24:45.489Z,1.00
2022-11-01T20:27:17.010Z,1.53
2022-11-01T20:29:48.065Z,0.80
2022-11-01T20:32:21.248Z,0.80
2022-11-01T20:34:52.402Z,1.10
2022-11-01T20:37:28.445Z,1.13
2022-11-01T20:40:00.146Z,0.93
2022-11-01T20:42:31.232Z,1.10
2022-11-01T20:45:02.716Z,1.00
2022-11-01T20:47:36.880Z,1.00
2022-11-01T20:50:09.602Z,1.10
2022-11-01T20:52:40.670Z,0.90
2022-11-01T20:55:13.507Z,0.60
2022-11-01T20:57:45.057Z,0.90
2022-11-01T21:00:19.319Z,0.80
2022-11-01T21:02:53.106Z,0.90
2022-11-01T21:05:27.276Z,1.00
2022-11-01T21:08:04.640Z,0.90
2022-11-01T21:10:37.259Z,0.80
2022-11-01T21:13:21.733Z,0.80
2022-11-01T21:15:53.623Z,0.90
2022-11-01T21:18:44.966Z,0.80
2022-11-01T21:21:35.252Z,0.93
2022-11-01T21:24:29.409Z,0.87
2022-11-01T21:27:18.802Z,0.70
2022-11-01T21:29:51.188Z,1.10
2022-11-01T21:32:31.458Z,1.03
2022-11-01T21:35:26.316Z,0.70
2022-11-01T21:37:59.063Z,1.13
2022-11-01T21:40:31.239Z,0.90
2022-11-01T21:43:20.842Z,0.73
2022-11-01T21:45:52.683Z,0.77
2022-11-01T21:48:32.375Z,1.40
2022-11-01T21:51:05.589Z,0.83
2022-11-01T21:53:36.646Z,0.83
2022-11-01T21:56:08.120Z,0.60
2022-11-01T21:58:39.470Z,0.70
2022-11-01T22:01:13.272Z,0.77
2022-11-01T22:03:44.134Z,1.00
2022-11-01T22:06:17.210Z,0.70
2022-11-01T22:08:48.285Z,0.60
2022-11-01T22:11:23.524Z,0.60
2022-11-01T22:13:56.002Z,0.80
2022-11-01T22:16:26.827Z,0.70
2022-11-01T22:18:57.964Z,0.90
2022-11-01T22:21:32.274Z,1.30
2022-11-01T22:24:04.223Z,0.77
2022-11-01T22:26:35.706Z,1.00
2022-11-01T22:29:06.999Z,0.90
2022-11-01T22:31:37.902Z,1.03
2022-11-01T22:34:08.746Z,1.10
2022-11-01T22:36:44.963Z,1.33
2022-11-01T22:39:20.072Z,1.30
2022-11-01T22:41:51.408Z,1.00
2022-11-01T22:44:27.994Z,1.00
2022-11-01T22:47:01.970Z,1.00
2022-11-01T22:49:35.655Z,1.20
2022-11-01T22:52:30.359Z,1.10
2022-11-01T22:55:07.618Z,1.40
2022-11-01T22:57:43.147Z,1.13
2022-11-01T23:00:33.797Z,1.10
2022-11-01T23:03:13.959Z,0.97
2022-11-01T23:05:46.072Z,0.93
2022-11-01T23:08:30.406Z,0.90
2022-11-01T23:11:01.919Z,1.00
2022-11-01T23:13:52.040Z,1.03
2022-11-01T23:16:28.805Z,1.00
2022-11-01T23:19:02.871Z,1.23
2022-11-01T23:21:34.384Z,1.00
2022-11-01T23:24:10.176Z,1.10
2022-11-01T23:26:41.232Z,1.00
2022-11-01T23:29:13.646Z,1.13
2022-11-01T23:31:44.725Z,1.03
2022-11-01T23:34:15.776Z,1.00
2022-11-01T23:36:46.816Z,1.53
2022-11-01T23:39:20.588Z,1.30
2022-11-01T23:41:53.937Z,1.00
2022-11-01T23:44:30.468Z,1.10
2022-11-01T23:47:04.645Z,1.23
2022-11-01T23:49:38.381Z,1.33
2022-11-01T23:52:25.758Z,1.13
2022-11-01T23:54:58.869Z,1.10
2022-11-01T23:57:29.977Z,1.10
